Time;durP1;ratioP1;P1;durP2;ratioP2;P2;SDS_P1;SDS_P2;PMS_P1;PMS_P2;Temp;Humidity;BMP_temperature;BMP_pressure;BME280_temperature;BME280_humidity;BME280_pressure;Samples;Min_cycle;Max_cycle;Signal;HPM_P1;HPM_P2
2023/06/22 00:01:12;;;;;;;39.95;35.95;;;17.90;99.90;;;;;;7377945;19;20011;-87
2023/06/22 00:03:39;;;;;;;40.38;36.30;;;18.00;99.90;;;;;;7374383;19;20089;-86
2023/06/22 00:06:05;;;;;;;43.30;38.90;;;17.90;99.90;;;;;;7381510;19;20014;-84
2023/06/22 00:08:31;;;;;;;41.20;36.95;;;17.90;99.90;;;;;;7377446;19;20614;-86
2023/06/22 00:10:57;;;;;;;41.95;37.20;;;17.90;99.90;;;;;;7377663;19;20022;-86
2023/06/22 00:13:23;;;;;;;43.13;38.83;;;17.80;99.90;;;;;;7375706;19;20037;-86
2023/06/22 00:15:50;;;;;;;43.88;39.55;;;17.80;99.90;;;;;;7379726;19;20019;-86
2023/06/22 00:18:17;;;;;;;45.00;40.38;;;17.80;99.90;;;;;;7372128;19;20029;-86
2023/06/22 00:20:45;;;;;;;46.03;41.08;;;17.80;99.90;;;;;;7378962;19;20788;-86
2023/06/22 00:23:17;;;;;;;45.70;41.17;;;17.80;99.90;;;;;;7378484;19;20021;-86
2023/06/22 00:25:43;;;;;;;47.50;42.58;;;17.80;99.90;;;;;;7374799;19;20018;-85
2023/06/22 00:28:09;;;;;;;47.40;42.63;;;17.70;99.90;;;;;;7372934;19;20018;-85
2023/06/22 00:30:35;;;;;;;44.28;39.30;;;17.70;99.90;;;;;;7373057;19;20015;-84
2023/06/22 00:33:02;;;;;;;45.35;40.88;;;17.70;99.90;;;;;;7377500;19;20029;-87
2023/06/22 00:35:31;;;;;;;45.28;40.80;;;17.70;99.90;;;;;;7374966;19;20749;-85
2023/06/22 00:38:04;;;;;;;47.13;42.08;;;17.70;99.90;;;;;;7373847;19;20032;-85
2023/06/22 00:40:32;;;;;;;48.80;44.05;;;17.60;99.90;;;;;;7372949;19;20030;-87
2023/06/22 00:42:59;;;;;;;49.97;45.03;;;17.60;99.90;;;;;;7377594;19;20040;-87
2023/06/22 00:45:26;;;;;;;48.85;44.10;;;17.60;99.90;;;;;;7374947;19;20022;-86
2023/06/22 00:47:53;;;;;;;51.75;46.33;;;17.60;99.90;;;;;;7374282;19;20010;-87
2023/06/22 00:50:24;;;;;;;52.50;47.17;;;17.60;99.90;;;;;;7375043;19;20021;-87
2023/06/22 00:52:52;;;;;;;54.58;49.03;;;17.60;99.90;;;;;;7374335;19;20027;-87
2023/06/22 00:55:21;;;;;;;55.40;49.75;;;17.60;99.90;;;;;;7379281;19;20018;-85
2023/06/22 00:57:48;;;;;;;52.60;47.40;;;17.60;99.90;;;;;;7378366;19;20796;-86
2023/06/22 01:00:17;;;;;;;56.67;51.17;;;17.60;99.90;;;;;;7374699;19;20116;-86
2023/06/22 01:02:45;;;;;;;54.38;49.17;;;17.50;99.90;;;;;;7378115;19;20014;-86
2023/06/22 01:05:13;;;;;;;53.90;48.70;;;17.50;99.90;;;;;;7379693;19;20052;-86
2023/06/22 01:07:54;;;;;;;53.13;47.97;;;17.50;99.90;;;;;;7376251;19;20078;-87
2023/06/22 01:10:46;;;;;;;54.92;49.25;;;17.40;99.90;;;;;;7376649;19;20107;-86
2023/06/22 01:13:37;;;;;;;57.20;51.08;;;17.50;99.90;;;;;;7371429;19;20494;-85
2023/06/22 01:16:10;;;;;;;55.83;49.85;;;17.40;99.90;;;;;;7378404;19;20052;-86
2023/06/22 01:18:42;;;;;;;55.38;49.78;;;17.40;99.90;;;;;;7377146;19;20018;-86
2023/06/22 01:21:18;;;;;;;57.92;51.95;;;17.40;99.90;;;;;;7376466;19;20642;-86
2023/06/22 01:23:54;;;;;;;57.13;51.10;;;17.40;99.90;;;;;;7371717;19;20029;-86
2023/06/22 01:26:42;;;;;;;53.28;47.65;;;17.40;99.90;;;;;;7374771;19;20633;-86
2023/06/22 01:29:12;;;;;;;54.03;48.63;;;17.40;99.90;;;;;;7374452;19;20023;-85
2023/06/22 01:31:39;;;;;;;56.17;50.45;;;17.40;99.90;;;;;;7373945;19;20015;-86
2023/06/22 01:34:08;;;;;;;56.95;50.95;;;17.40;99.90;;;;;;7371261;19;20037;-85
2023/06/22 01:36:36;;;;;;;53.35;47.88;;;17.40;99.90;;;;;;7373954;19;20021;-86
2023/06/22 01:39:05;;;;;;;52.10;46.58;;;17.40;99.90;;;;;;7364308;19;20022;-86
2023/06/22 01:41:36;;;;;;;54.75;48.75;;;17.30;99.90;;;;;;7372605;19;20482;-86
2023/06/22 01:44:07;;;;;;;52.03;46.47;;;17.30;99.90;;;;;;7365460;19;20035;-86
2023/06/22 01:46:38;;;;;;;51.00;45.72;;;17.30;99.90;;;;;;7373164;19;20019;-85
2023/06/22 01:49:04;;;;;;;49.70;44.75;;;17.30;99.90;;;;;;7374349;19;20082;-86
2023/06/22 01:51:31;;;;;;;48.85;43.55;;;17.30;99.90;;;;;;7369112;19;20022;-86
2023/06/22 01:54:00;;;;;;;50.00;44.55;;;17.30;99.90;;;;;;7372057;19;20026;-85
2023/06/22 01:56:27;;;;;;;49.45;44.40;;;17.20;99.90;;;;;;7372151;19;20386;-86
2023/06/22 01:58:59;;;;;;;45.63;41.20;;;17.20;99.90;;;;;;7369581;19;20027;-86
2023/06/22 02:01:41;;;;;;;48.42;43.58;;;17.10;99.90;;;;;;7373203;19;20018;-85
2023/06/22 02:04:14;;;;;;;45.95;41.40;;;17.10;99.90;;;;;;7370533;19;20027;-87
2023/06/22 02:06:46;;;;;;;45.67;41.10;;;17.10;99.90;;;;;;7372315;19;20381;-86
2023/06/22 02:09:16;;;;;;;46.28;41.60;;;17.10;99.90;;;;;;7369207;19;20036;-86
2023/06/22 02:11:45;;;;;;;47.58;42.83;;;17.00;99.90;;;;;;7371940;19;20030;-87
2023/06/22 02:14:13;;;;;;;48.90;43.90;;;17.00;99.90;;;;;;7368613;19;20074;-86
2023/06/22 02:16:41;;;;;;;50.92;45.72;;;16.90;99.90;;;;;;7373389;19;20018;-86
2023/06/22 02:19:09;;;;;;;48.85;44.03;;;16.90;99.90;;;;;;7367947;19;20022;-85
2023/06/22 02:21:35;;;;;;;49.20;44.33;;;16.90;99.90;;;;;;7369698;19;20023;-86
2023/06/22 02:24:02;;;;;;;51.25;46.13;;;16.90;99.90;;;;;;7368511;19;21763;-86
2023/06/22 02:26:30;;;;;;;50.45;45.28;;;16.80;99.90;;;;;;7369575;19;20029;-86
2023/06/22 02:28:56;;;;;;;50.95;45.78;;;16.80;99.90;;;;;;7368212;19;20043;-86
2023/06/22 02:31:30;;;;;;;50.03;44.70;;;16.80;99.90;;;;;;7372569;19;20021;-86
2023/06/22 02:33:58;;;;;;;53.10;47.53;;;16.70;99.90;;;;;;7368883;19;20019;-86
2023/06/22 02:36:26;;;;;;;52.72;47.00;;;16.70;99.90;;;;;;7369195;19;20021;-86
2023/06/22 02:38:54;;;;;;;51.00;45.72;;;16.70;99.90;;;;;;7367326;19;20926;-86
2023/06/22 02:41:20;;;;;;;50.72;45.47;;;16.70;99.90;;;;;;7367236;19;20054;-86
2023/06/22 02:43:46;;;;;;;50.22;45.05;;;16.70;99.90;;;;;;7367152;19;20029;-86
2023/06/22 02:46:14;;;;;;;49.53;44.47;;;16.60;99.90;;;;;;7368898;19;20550;-86
2023/06/22 02:48:42;;;;;;;53.38;47.88;;;16.60;99.90;;;;;;7370764;19;20047;-85
2023/06/22 02:51:09;;;;;;;54.72;48.80;;;16.60;99.90;;;;;;7370423;19;20014;-84
2023/06/22 02:53:36;;;;;;;53.45;48.17;;;16.50;99.90;;;;;;7366846;19;20022;-85
2023/06/22 02:56:05;;;;;;;56.22;50.33;;;16.50;99.90;;;;;;7370961;19;20025;-85
2023/06/22 02:58:38;;;;;;;57.92;51.83;;;16.50;99.90;;;;;;7366394;19;20022;-85
2023/06/22 03:01:07;;;;;;;55.33;50.00;;;16.50;99.90;;;;;;7365761;19;20049;-86
2023/06/22 03:03:34;;;;;;;56.33;50.42;;;16.50;99.90;;;;;;7364508;19;20022;-86
2023/06/22 03:06:01;;;;;;;55.22;49.83;;;16.50;99.90;;;;;;7367642;19;20109;-86
2023/06/22 03:08:29;;;;;;;56.15;50.47;;;16.50;99.90;;;;;;7369499;19;20045;-85
2023/06/22 03:10:56;;;;;;;56.20;50.30;;;16.50;99.90;;;;;;7369863;19;20018;-86
2023/06/22 03:13:22;;;;;;;53.17;47.67;;;16.50;99.90;;;;;;7369780;19;20026;-84
2023/06/22 03:15:48;;;;;;;54.45;48.70;;;16.50;99.90;;;;;;7366616;19;20025;-86
2023/06/22 03:18:17;;;;;;;53.05;47.83;;;16.50;99.90;;;;;;7368398;19;20030;-85
2023/06/22 03:20:44;;;;;;;53.47;48.17;;;16.40;99.90;;;;;;7367715;19;20018;-86
2023/06/22 03:23:11;;;;;;;53.35;47.95;;;16.40;99.90;;;;;;7362574;19;20026;-86
2023/06/22 03:25:38;;;;;;;54.53;48.95;;;16.40;99.90;;;;;;7368518;19;20110;-86
2023/06/22 03:28:05;;;;;;;44.67;40.40;;;16.40;99.90;;;;;;7366124;19;20505;-86
2023/06/22 03:30:32;;;;;;;44.60;40.00;;;16.30;99.90;;;;;;7370063;19;20032;-87
2023/06/22 03:33:00;;;;;;;46.85;42.35;;;16.20;99.90;;;;;;7362702;19;20023;-86
2023/06/22 03:35:27;;;;;;;47.38;42.60;;;16.20;99.90;;;;;;7369752;19;20034;-86
2023/06/22 03:37:53;;;;;;;51.65;46.20;;;16.20;99.90;;;;;;7374941;19;20088;-86
2023/06/22 03:40:20;;;;;;;50.47;45.30;;;16.20;99.90;;;;;;7374567;19;20022;-85
2023/06/22 03:42:47;;;;;;;51.25;45.97;;;16.20;99.90;;;;;;7374355;19;20018;-86
2023/06/22 03:45:13;;;;;;;49.00;44.05;;;16.20;99.90;;;;;;7373201;19;20022;-86
2023/06/22 03:47:39;;;;;;;47.88;42.78;;;16.20;99.90;;;;;;7373268;19;20083;-86
2023/06/22 03:50:06;;;;;;;46.78;41.83;;;16.20;99.90;;;;;;7376343;19;20061;-86
2023/06/22 03:52:33;;;;;;;44.58;40.30;;;16.20;99.90;;;;;;7376410;19;20022;-85
2023/06/22 03:54:59;;;;;;;46.38;41.13;;;16.20;99.90;;;;;;7373547;19;20034;-84
2023/06/22 03:57:26;;;;;;;46.38;41.75;;;16.20;99.90;;;;;;7376706;19;20018;-86
2023/06/22 03:59:54;;;;;;;44.47;40.05;;;16.30;99.90;;;;;;7380688;19;20023;-81
2023/06/22 04:02:20;;;;;;;45.70;41.10;;;16.20;99.90;;;;;;7376155;19;20497;-83
2023/06/22 04:04:46;;;;;;;46.08;41.45;;;16.30;99.90;;;;;;7380923;19;20074;-81
2023/06/22 04:07:12;;;;;;;45.13;40.72;;;16.30;99.90;;;;;;7377054;19;20024;-82
2023/06/22 04:09:39;;;;;;;44.47;40.17;;;16.40;99.90;;;;;;7379584;19;20022;-82
2023/06/22 04:12:05;;;;;;;44.13;39.88;;;16.40;99.90;;;;;;7375988;19;20490;-81
2023/06/22 04:14:32;;;;;;;44.05;39.78;;;16.40;99.90;;;;;;7379905;19;20496;-83
2023/06/22 04:16:58;;;;;;;43.10;38.83;;;16.40;99.90;;;;;;7383476;19;20043;-82
2023/06/22 04:19:25;;;;;;;39.63;35.85;;;16.40;99.90;;;;;;7380564;19;20039;-81
2023/06/22 04:21:52;;;;;;;42.08;37.88;;;16.50;99.90;;;;;;7374778;19;20024;-83
2023/06/22 04:24:18;;;;;;;41.70;37.58;;;16.50;99.90;;;;;;7381272;19;20022;-82
2023/06/22 04:26:46;;;;;;;41.40;37.38;;;16.50;99.90;;;;;;7381906;19;20046;-83
2023/06/22 04:29:13;;;;;;;41.72;37.53;;;16.50;99.90;;;;;;7381601;19;20030;-83
2023/06/22 04:31:39;;;;;;;43.47;39.28;;;16.50;99.90;;;;;;7376125;19;20041;-83
2023/06/22 04:34:07;;;;;;;43.22;38.95;;;16.50;99.90;;;;;;7376828;19;20031;-83
2023/06/22 04:36:38;;;;;;;48.45;43.53;;;16.60;99.90;;;;;;7377989;19;20015;-82
2023/06/22 04:39:06;;;;;;;48.05;43.05;;;16.70;99.90;;;;;;7380627;19;20452;-83
2023/06/22 04:41:41;;;;;;;47.08;42.33;;;16.70;99.90;;;;;;7379352;19;20026;-83
2023/06/22 04:44:27;;;;;;;50.47;44.97;;;16.70;99.90;;;;;;7379353;19;20022;-83
2023/06/22 04:47:08;;;;;;;49.63;44.60;;;16.70;99.90;;;;;;7379014;19;20392;-82
2023/06/22 04:49:40;;;;;;;52.83;47.40;;;16.80;99.90;;;;;;7377375;19;20311;-83
2023/06/22 04:52:11;;;;;;;52.60;47.33;;;16.90;99.90;;;;;;7378406;19;20031;-83
2023/06/22 04:54:40;;;;;;;53.83;48.17;;;16.90;99.90;;;;;;7383520;19;20032;-84
2023/06/22 04:57:10;;;;;;;53.35;47.45;;;17.00;99.90;;;;;;7378981;19;20014;-84
2023/06/22 04:59:38;;;;;;;50.70;45.45;;;17.10;99.90;;;;;;7373452;19;20037;-83
2023/06/22 05:02:05;;;;;;;51.85;46.65;;;17.20;99.90;;;;;;7371315;19;20029;-82
2023/06/22 05:04:32;;;;;;;52.13;47.03;;;17.30;99.90;;;;;;7377042;19;20030;-83
2023/06/22 05:07:02;;;;;;;50.83;45.72;;;17.40;99.90;;;;;;7373444;19;20489;-82
2023/06/22 05:09:29;;;;;;;51.25;46.10;;;17.50;99.90;;;;;;7373792;19;20037;-82
2023/06/22 05:11:59;;;;;;;51.88;46.88;;;17.70;99.90;;;;;;7366986;19;20542;-82
2023/06/22 05:14:25;;;;;;;50.35;45.25;;;18.00;99.90;;;;;;7372325;19;20011;-82
2023/06/22 05:16:52;;;;;;;47.90;43.17;;;18.20;99.90;;;;;;7371042;19;20019;-82
2023/06/22 05:19:18;;;;;;;45.65;41.33;;;18.40;99.90;;;;;;7373560;19;20086;-82
2023/06/22 05:21:45;;;;;;;46.15;41.65;;;18.60;99.90;;;;;;7370540;19;20031;-83
2023/06/22 05:24:12;;;;;;;48.75;44.08;;;18.90;99.90;;;;;;7371633;19;20019;-83
2023/06/22 05:26:39;;;;;;;45.47;41.17;;;19.00;99.90;;;;;;7371563;19;20359;-82
2023/06/22 05:29:06;;;;;;;47.35;42.72;;;19.20;99.90;;;;;;7372691;19;20078;-83
2023/06/22 05:31:32;;;;;;;45.00;40.60;;;19.30;99.90;;;;;;7378190;19;20036;-83
2023/06/22 05:33:59;;;;;;;44.35;39.88;;;19.50;99.90;;;;;;7371249;19;20026;-83
2023/06/22 05:36:26;;;;;;;42.72;38.53;;;19.60;99.90;;;;;;7373042;19;20090;-83
2023/06/22 05:38:54;;;;;;;42.33;38.20;;;19.80;99.90;;;;;;7368709;19;20033;-82
2023/06/22 05:41:20;;;;;;;114.13;103.50;;;19.90;99.90;;;;;;7370384;19;20029;-85
2023/06/22 05:43:46;;;;;;;80.82;73.13;;;20.20;99.90;;;;;;7367372;19;20800;-83
2023/06/22 05:46:13;;;;;;;42.10;37.97;;;20.50;99.90;;;;;;7367954;19;20026;-84
2023/06/22 05:48:39;;;;;;;44.88;40.40;;;20.60;99.90;;;;;;7358914;19;20044;-83
2023/06/22 05:51:06;;;;;;;38.35;34.53;;;20.60;99.90;;;;;;7369433;19;20052;-84
2023/06/22 05:53:32;;;;;;;39.67;35.97;;;20.80;99.90;;;;;;7371553;19;20049;-84
2023/06/22 05:55:58;;;;;;;38.20;34.47;;;20.90;99.90;;;;;;7367816;19;20010;-83
2023/06/22 05:58:24;;;;;;;38.40;34.70;;;20.90;99.90;;;;;;7369559;19;20819;-84
2023/06/22 06:00:51;;;;;;;35.83;32.50;;;21.00;99.90;;;;;;7369064;19;20117;-85
2023/06/22 06:03:17;;;;;;;33.55;30.48;;;21.00;99.90;;;;;;7370915;19;20614;-88
2023/06/22 06:05:44;;;;;;;34.45;31.05;;;21.20;99.90;;;;;;7369583;19;20026;-89
2023/06/22 06:08:11;;;;;;;33.85;30.60;;;21.00;99.90;;;;;;7363339;19;20090;-89
2023/06/22 06:10:38;;;;;;;31.58;28.52;;;21.10;99.90;;;;;;7371453;19;20018;-88
2023/06/22 06:13:05;;;;;;;31.70;28.75;;;21.30;99.90;;;;;;7367775;19;20014;-89
2023/06/22 06:15:32;;;;;;;30.17;27.23;;;21.40;99.90;;;;;;7370982;19;20762;-88
2023/06/22 06:17:58;;;;;;;28.30;25.60;;;21.40;99.90;;;;;;7372082;19;20120;-86
2023/06/22 06:20:27;;;;;;;27.75;25.02;;;21.50;99.90;;;;;;7361529;19;20033;-87
2023/06/22 06:22:54;;;;;;;25.67;23.17;;;21.60;99.90;;;;;;7369238;19;20025;-88
2023/06/22 06:25:21;;;;;;;25.58;23.08;;;21.70;99.90;;;;;;7370656;19;20018;-87
2023/06/22 06:27:51;;;;;;;27.75;25.05;;;21.90;99.90;;;;;;7371253;19;20022;-85
2023/06/22 06:30:18;;;;;;;23.33;21.13;;;22.10;99.90;;;;;;7368081;19;20025;-87
2023/06/22 06:32:50;;;;;;;20.98;19.05;;;22.30;99.90;;;;;;7368827;19;20383;-87
2023/06/22 06:35:17;;;;;;;20.25;18.27;;;22.20;99.90;;;;;;7371444;19;20014;-88
2023/06/22 06:37:45;;;;;;;22.15;20.05;;;22.10;99.90;;;;;;7371165;19;20019;-86
2023/06/22 06:40:14;;;;;;;18.88;16.95;;;22.20;99.90;;;;;;7367522;19;20018;-88
2023/06/22 06:42:44;;;;;;;18.83;17.02;;;22.40;99.90;;;;;;7367522;19;20022;-87
2023/06/22 06:45:18;;;;;;;18.45;16.65;;;22.30;99.90;;;;;;7368102;19;20018;-87
2023/06/22 06:47:44;;;;;;;16.88;15.10;;;22.70;99.90;;;;;;7368970;19;20018;-87
2023/06/22 06:50:12;;;;;;;17.23;15.63;;;22.90;99.90;;;;;;7367060;19;20015;-87
2023/06/22 06:52:39;;;;;;;17.95;16.25;;;23.00;99.90;;;;;;7368504;19;20033;-87
2023/06/22 06:55:11;;;;;;;19.77;17.98;;;23.00;99.90;;;;;;7363119;19;20023;-88
2023/06/22 06:57:42;;;;;;;15.93;14.25;;;23.10;99.90;;;;;;7368539;19;20029;-87
2023/06/22 07:00:13;;;;;;;17.13;15.38;;;23.10;99.90;;;;;;7367406;19;20014;-83
2023/06/22 07:02:41;;;;;;;15.48;13.27;;;23.30;99.90;;;;;;7368763;19;20050;-85
2023/06/22 07:05:09;;;;;;;14.80;13.30;;;23.50;99.90;;;;;;7368039;19;20030;-87
2023/06/22 07:07:35;;;;;;;16.08;12.23;;;23.70;99.90;;;;;;7370521;19;20119;-87
2023/06/22 07:10:03;;;;;;;18.58;16.65;;;23.80;99.90;;;;;;7369018;19;20117;-87
2023/06/22 07:12:29;;;;;;;12.73;11.40;;;23.90;99.90;;;;;;7378863;19;20039;-88
2023/06/22 07:15:05;;;;;;;14.63;12.10;;;23.60;99.90;;;;;;7376517;19;20048;-88
2023/06/22 07:17:31;;;;;;;12.10;10.80;;;23.80;99.90;;;;;;7372660;19;20046;-89
2023/06/22 07:19:57;;;;;;;17.25;15.57;;;23.70;99.90;;;;;;7374575;19;20026;-90
2023/06/22 07:22:23;;;;;;;24.23;21.88;;;23.60;99.90;;;;;;7374050;19;20034;-89
2023/06/22 07:24:50;;;;;;;24.63;22.10;;;23.60;99.90;;;;;;7379458;19;20487;-89
2023/06/22 07:27:21;;;;;;;13.90;11.98;;;23.50;99.90;;;;;;7379747;19;20504;-87
2023/06/22 07:29:47;;;;;;;13.35;12.00;;;23.70;99.90;;;;;;7380480;19;20026;-87
2023/06/22 07:32:13;;;;;;;12.63;11.32;;;23.70;99.90;;;;;;7379196;19;20474;-87
2023/06/22 07:34:41;;;;;;;17.80;16.05;;;24.00;99.90;;;;;;7376863;19;20040;-87
2023/06/22 07:37:07;;;;;;;16.30;14.07;;;24.40;99.90;;;;;;7380408;19;20022;-87
2023/06/22 07:39:34;;;;;;;15.18;13.55;;;24.80;99.90;;;;;;7378389;19;20590;-89
2023/06/22 07:42:04;;;;;;;10.75;9.65;;;24.80;99.90;;;;;;7379967;19;20018;-86
2023/06/22 07:44:30;;;;;;;9.45;8.00;;;25.00;99.90;;;;;;7369812;19;20015;-86
2023/06/22 07:46:56;;;;;;;14.18;12.73;;;25.30;99.90;;;;;;7379919;19;20019;-86
2023/06/22 07:49:23;;;;;;;10.38;9.00;;;25.60;99.90;;;;;;7379028;19;20093;-89
2023/06/22 07:51:49;;;;;;;10.32;9.32;;;25.70;99.90;;;;;;7378299;19;20014;-87
2023/06/22 07:54:17;;;;;;;8.80;7.80;;;25.70;99.90;;;;;;7373393;19;20021;-89
2023/06/22 07:56:43;;;;;;;13.55;12.02;;;25.90;99.90;;;;;;7378210;19;20078;-87
2023/06/22 07:59:09;;;;;;;9.73;6.72;;;26.00;99.90;;;;;;7378161;19;20014;-88
2023/06/22 08:01:36;;;;;;;9.85;7.53;;;26.10;99.90;;;;;;7378719;19;20302;-88
2023/06/22 08:04:02;;;;;;;10.85;8.95;;;26.50;99.90;;;;;;7373300;19;20018;-87
2023/06/22 08:06:30;;;;;;;10.05;8.93;;;26.60;99.90;;;;;;7376872;19;20829;-88
2023/06/22 08:08:58;;;;;;;7.75;7.00;;;26.90;99.90;;;;;;7380064;19;20018;-88
2023/06/22 08:11:25;;;;;;;15.25;13.73;;;27.10;99.90;;;;;;7379080;19;20058;-88
2023/06/22 08:13:52;;;;;;;12.57;10.90;;;27.30;99.90;;;;;;7382477;19;20010;-89
2023/06/22 08:16:18;;;;;;;12.20;10.85;;;27.20;99.90;;;;;;7380395;19;20014;-85
2023/06/22 08:18:47;;;;;;;8.82;8.00;;;27.20;99.90;;;;;;7379343;19;20050;-85
2023/06/22 08:21:17;;;;;;;11.82;10.65;;;27.10;99.90;;;;;;7379445;19;20030;-85
2023/06/22 08:23:43;;;;;;;11.68;7.10;;;27.50;99.90;;;;;;7377515;19;20026;-86
2023/06/22 08:26:09;;;;;;;10.38;7.63;;;27.40;99.90;;;;;;7375749;19;20074;-85
2023/06/22 08:28:39;;;;;;;11.02;9.63;;;27.50;99.90;;;;;;7376169;19;20047;-84
2023/06/22 08:31:05;;;;;;;9.30;8.40;;;27.60;99.90;;;;;;7374846;19;20010;-85
2023/06/22 08:33:31;;;;;;;18.58;16.67;;;27.70;99.90;;;;;;7377696;19;20018;-86
2023/06/22 08:35:59;;;;;;;17.45;15.77;;;27.70;99.90;;;;;;7375621;19;20082;-85
2023/06/22 08:38:25;;;;;;;11.35;7.75;;;27.70;99.90;;;;;;7375363;19;20581;-81
2023/06/22 08:40:57;;;;;;;17.33;15.52;;;27.80;99.10;;;;;;7374716;19;20047;-84
2023/06/22 08:43:23;;;;;;;13.15;11.85;;;27.60;97.70;;;;;;7375411;19;20014;-84
2023/06/22 08:45:50;;;;;;;10.43;9.23;;;27.50;98.70;;;;;;7376092;19;20086;-84
2023/06/22 08:48:16;;;;;;;22.23;20.13;;;27.40;98.50;;;;;;7373062;19;20018;-80
2023/06/22 08:50:42;;;;;;;14.77;13.35;;;27.70;98.00;;;;;;7375454;19;20105;-80
2023/06/22 08:53:09;;;;;;;12.15;11.05;;;27.70;97.90;;;;;;7369697;19;20015;-80
2023/06/22 08:55:35;;;;;;;15.32;13.73;;;27.90;96.80;;;;;;7374221;19;20014;-77
2023/06/22 08:58:01;;;;;;;10.95;9.30;;;28.00;97.00;;;;;;7371193;19;20019;-78
2023/06/22 09:00:29;;;;;;;18.42;16.70;;;28.20;95.60;;;;;;7375226;19;20018;-78
2023/06/22 09:02:58;;;;;;;13.23;9.57;;;28.10;95.00;;;;;;7378696;19;20037;-78
2023/06/22 09:05:26;;;;;;;;;;;28.40;93.70;;;;;;7370013;19;20018;-79
2023/06/22 09:07:54;;;;;;;14.75;13.27;;;28.40;93.80;;;;;;7368780;19;19926;-82
2023/06/22 09:10:20;;;;;;;10.30;9.02;;;28.30;92.60;;;;;;7374097;19;20019;-84
2023/06/22 09:12:47;;;;;;;9.45;7.70;;;28.40;91.70;;;;;;7379638;19;20015;-85
2023/06/22 09:15:13;;;;;;;10.27;9.05;;;28.60;92.10;;;;;;7370797;19;20041;-84
2023/06/22 09:17:40;;;;;;;8.77;7.38;;;28.80;91.70;;;;;;7369503;19;20018;-85
2023/06/22 09:20:10;;;;;;;7.45;6.70;;;28.90;91.00;;;;;;7372434;19;20024;-84
2023/06/22 09:22:36;;;;;;;11.02;9.88;;;28.90;88.60;;;;;;7370664;19;20693;-85
2023/06/22 09:25:03;;;;;;;7.85;6.70;;;29.10;89.10;;;;;;7373472;19;20286;-84
2023/06/22 09:27:29;;;;;;;12.07;10.68;;;29.30;88.60;;;;;;7370053;19;20018;-84
2023/06/22 09:29:58;;;;;;;12.55;9.23;;;29.20;84.80;;;;;;7374805;19;20109;-85
2023/06/22 09:32:25;;;;;;;9.30;8.30;;;29.40;84.70;;;;;;7371299;19;20014;-85
2023/06/22 09:34:53;;;;;;;10.82;9.73;;;29.60;84.40;;;;;;7373068;19;20016;-85
2023/06/22 09:37:19;;;;;;;9.02;8.00;;;29.80;83.00;;;;;;7372928;19;20543;-85
2023/06/22 09:39:46;;;;;;;10.32;7.75;;;29.60;82.20;;;;;;7372848;19;20022;-84
2023/06/22 09:42:13;;;;;;;11.68;9.00;;;29.70;80.50;;;;;;7373237;19;20355;-85
2023/06/22 09:44:39;;;;;;;10.75;8.55;;;29.80;80.20;;;;;;7370817;19;20617;-85
2023/06/22 09:47:06;;;;;;;12.73;8.10;;;30.40;78.70;;;;;;7374372;19;20943;-85
2023/06/22 09:49:32;;;;;;;14.82;13.45;;;30.70;77.10;;;;;;7367229;19;20038;-84
2023/06/22 09:51:59;;;;;;;8.52;7.68;;;30.80;74.40;;;;;;7370574;19;20026;-80
2023/06/22 09:54:25;;;;;;;9.65;8.55;;;31.10;71.90;;;;;;7363579;19;20019;-82
2023/06/22 09:56:52;;;;;;;10.18;9.27;;;31.20;70.10;;;;;;7369630;19;20014;-81
2023/06/22 09:59:18;;;;;;;8.68;7.78;;;30.50;68.70;;;;;;7362672;19;20015;-80
2023/06/22 10:01:44;;;;;;;11.00;8.02;;;30.90;68.00;;;;;;7363291;19;20472;-81
2023/06/22 10:04:14;;;;;;;8.20;7.40;;;31.00;67.30;;;;;;7364979;19;20109;-80
2023/06/22 10:06:40;;;;;;;9.98;8.98;;;31.30;67.30;;;;;;7360459;19;20030;-80
2023/06/22 10:09:07;;;;;;;9.88;6.95;;;31.60;67.20;;;;;;7360709;19;20026;-79
2023/06/22 10:11:34;;;;;;;8.50;6.90;;;31.40;66.20;;;;;;7359788;19;20014;-80
2023/06/22 10:14:02;;;;;;;12.27;11.07;;;31.90;65.40;;;;;;7360666;19;20023;-79
2023/06/22 10:16:32;;;;;;;9.80;6.95;;;31.40;64.00;;;;;;7364359;19;20513;-80
2023/06/22 10:18:58;;;;;;;;;;;31.80;63.80;;;;;;7368916;19;20585;-80
2023/06/22 10:21:26;;;;;;;10.65;9.18;;;31.50;62.20;;;;;;7366270;19;20005;-80
2023/06/22 10:23:53;;;;;;;11.07;9.43;;;31.30;62.40;;;;;;7369109;19;20094;-80
2023/06/22 10:26:19;;;;;;;8.90;8.00;;;30.80;62.70;;;;;;7370704;19;20018;-80
2023/06/22 10:28:46;;;;;;;10.57;8.27;;;30.70;63.90;;;;;;7369871;19;20018;-80
2023/06/22 10:31:13;;;;;;;8.60;7.43;;;30.90;64.40;;;;;;7369260;19;20824;-80
2023/06/22 10:33:41;;;;;;;10.68;9.65;;;30.60;63.30;;;;;;7366700;19;20081;-81
2023/06/22 10:36:07;;;;;;;10.75;9.10;;;31.30;64.10;;;;;;7368675;19;20018;-80
2023/06/22 10:38:34;;;;;;;17.63;16.13;;;31.70;63.60;;;;;;7365497;19;20093;-81
2023/06/22 10:41:00;;;;;;;7.72;6.93;;;32.20;62.00;;;;;;7367667;19;20107;-82
2023/06/22 10:43:26;;;;;;;9.02;7.18;;;32.40;60.50;;;;;;7363357;19;20511;-81
2023/06/22 10:45:52;;;;;;;10.85;9.18;;;32.40;59.10;;;;;;7374455;19;20022;-80
2023/06/22 10:48:21;;;;;;;10.63;9.63;;;32.40;60.30;;;;;;7378486;19;20018;-79
2023/06/22 10:50:47;;;;;;;11.70;9.98;;;32.10;59.80;;;;;;7373307;19;20052;-81
2023/06/22 10:53:14;;;;;;;7.63;6.93;;;31.50;59.10;;;;;;7374370;19;20763;-81
2023/06/22 10:55:40;;;;;;;12.13;8.40;;;31.20;59.60;;;;;;7374819;19;20014;-80
2023/06/22 10:58:06;;;;;;;7.72;6.93;;;31.40;59.50;;;;;;7368050;19;20490;-81
2023/06/22 11:00:33;;;;;;;14.10;12.68;;;31.50;59.20;;;;;;7364850;19;20022;-80
2023/06/22 11:03:00;;;;;;;8.45;7.63;;;31.40;59.40;;;;;;7369985;19;20019;-82
2023/06/22 11:05:26;;;;;;;8.73;7.82;;;31.20;59.90;;;;;;7368623;19;20427;-82
2023/06/22 11:07:53;;;;;;;10.02;6.95;;;31.20;60.30;;;;;;7368524;19;20022;-83
2023/06/22 11:10:19;;;;;;;8.13;5.75;;;31.20;59.60;;;;;;7368208;19;20026;-81
2023/06/22 11:12:46;;;;;;;9.30;6.50;;;30.80;60.30;;;;;;7369258;19;20018;-81
2023/06/22 11:15:13;;;;;;;6.88;6.18;;;30.50;59.70;;;;;;7376872;19;20040;-81
2023/06/22 11:17:39;;;;;;;10.25;7.55;;;30.30;60.00;;;;;;7371887;19;20520;-81
2023/06/22 11:20:10;;;;;;;13.32;11.73;;;30.20;60.00;;;;;;7370988;19;20560;-82
2023/06/22 11:22:39;;;;;;;20.63;18.80;;;30.00;60.90;;;;;;7373032;19;20492;-82
2023/06/22 11:25:06;;;;;;;17.65;15.85;;;29.90;61.70;;;;;;7373376;19;20019;-82
2023/06/22 11:27:32;;;;;;;13.32;11.93;;;29.60;61.90;;;;;;7377857;19;20018;-81
2023/06/22 11:29:58;;;;;;;11.52;9.82;;;29.80;62.30;;;;;;7370710;19;20015;-82
2023/06/22 11:32:25;;;;;;;39.00;35.60;;;29.60;62.40;;;;;;7378602;19;20025;-80
2023/06/22 11:34:51;;;;;;;101.00;92.25;;;29.80;62.70;;;;;;7377037;19;20621;-81
2023/06/22 11:37:18;;;;;;;15.40;14.00;;;29.40;63.30;;;;;;7374470;19;20018;-80
2023/06/22 11:39:44;;;;;;;16.25;13.55;;;29.30;63.60;;;;;;7376669;19;20023;-81
2023/06/22 11:42:10;;;;;;;16.98;15.27;;;29.20;63.10;;;;;;7374015;19;21036;-81
2023/06/22 11:44:36;;;;;;;13.18;11.75;;;29.20;62.80;;;;;;7378232;19;20026;-81
2023/06/22 11:47:04;;;;;;;41.60;37.70;;;29.20;63.20;;;;;;7373056;19;20020;-84
2023/06/22 11:49:31;;;;;;;11.38;10.18;;;29.10;64.30;;;;;;7379435;19;20043;-82
2023/06/22 11:51:57;;;;;;;13.48;10.30;;;28.90;63.70;;;;;;7375209;19;20025;-83
2023/06/22 11:54:23;;;;;;;24.02;21.55;;;28.70;65.10;;;;;;7377721;19;20022;-82
2023/06/22 11:56:49;;;;;;;25.25;22.88;;;28.70;66.00;;;;;;7370317;19;20041;-81
2023/06/22 11:59:16;;;;;;;16.48;14.85;;;28.60;65.80;;;;;;7374822;19;20019;-80
2023/06/22 12:01:42;;;;;;;14.88;13.27;;;28.50;65.90;;;;;;7376997;19;20054;-81
2023/06/22 12:04:11;;;;;;;14.38;12.93;;;28.50;66.00;;;;;;7375668;19;20022;-80
2023/06/22 12:06:41;;;;;;;12.23;10.55;;;28.60;66.40;;;;;;7376265;19;20018;-80
2023/06/22 12:09:08;;;;;;;10.20;9.07;;;28.50;67.30;;;;;;7376702;19;20389;-80
2023/06/22 12:11:34;;;;;;;17.27;13.48;;;28.60;67.90;;;;;;7374977;19;20160;-82
2023/06/22 12:14:01;;;;;;;10.75;8.60;;;28.90;67.10;;;;;;7372986;19;20649;-82
2023/06/22 12:16:31;;;;;;;20.20;18.17;;;29.00;66.90;;;;;;7374619;19;20014;-81
2023/06/22 12:18:57;;;;;;;33.55;30.40;;;29.10;66.50;;;;;;7370291;19;20030;-82
2023/06/22 12:21:23;;;;;;;71.53;65.07;;;29.10;66.30;;;;;;7371838;19;20030;-82
2023/06/22 12:23:49;;;;;;;19.02;17.23;;;29.20;66.30;;;;;;7371801;19;20045;-80
2023/06/22 12:26:16;;;;;;;18.67;16.85;;;29.20;65.30;;;;;;7373585;19;20506;-80
2023/06/22 12:28:42;;;;;;;17.38;15.63;;;29.30;65.70;;;;;;7368684;19;20018;-81
2023/06/22 12:31:08;;;;;;;22.00;19.85;;;29.30;66.40;;;;;;7373608;19;20528;-81
2023/06/22 12:33:35;;;;;;;12.10;10.77;;;29.30;66.30;;;;;;7370645;19;20014;-81